Аэропорт: Уральск. Уральск

ICAO: UARR

METAR:
2020-10-19 23:00:00
UARR 192300Z 34006MPS 9999 -SHRA BKN040CB 07/04 Q1014 R22/CLRD70 NOSIG RMK QFE757/1010
METAR:
2020-10-19 20:02:00
TAF UARR 192002Z 1921/2006 33004MPS 3100 -SHRA BR BKN011 BKN020CB